Raleigh County Memorial Airport
KBKW : rendu visible

Aérodrome :











RETROUVEZ-NOUS SUR...

 
LOGIN :

S'inscrire | Disclaimer

   EN    FR    IT 

 









Légende :    VFR   VFR Marginal   IFR   IFR Intensif   IFR Très Intensif
Visi : 
Plafond : 
>= 8 km
>= 3000ft
5 à 8 km
1000 à 3000 ft
1500m à 5 km
500 à 1000 ft
800 à 1500m
200 à 500 ft
< 800m
< 200 ft
Symboles :   Orages  Brouillard  Fortes neiges  Fortes précipitations  Vent > 20 kt






- Altitude de l'aérodrome : 2504 ft
- Code IATA : BKW


KBKW - Raleigh County Memorial

DERNIER METAR :
  • 250451Z AUTO 14009G18KT 10SM CLR 05/M02 A3016 RMK AO2 SLP223 T00501017 401061022 TSNO

METARs EXPIRÉS :
  • 250351Z AUTO 14009G16KT 10SM CLR 05/M02 A3017 RMK AO2 SLP228 T00501017 TSNO
  • 250251Z AUTO 14011G18KT 10SM CLR 06/M02 A3019 RMK AO2 SLP239 T00561017 55003 TSNO

TAF KBKW
Valide du 25 à 03h jusqu'au 26 à 00h UTC


250255Z 2503/2524 14009G15KT P6SM BKN120
FM251700 17014G22KT P6SM SCT060
FM252200 17014G20KT P6SM VCSH BKN040
FIR KZID / Amérique du Nord



MET'MAP, la Météo Aéronautique d'un coup d'oeil ! - Copyright ORBIFLY Décembre 2007 - Disclaimer

ORBIFLY MET'MAP TEAM :

Programmation & Développement : Alexandra Zaïnal
Sur une idée originale de : Baudouin d'Aumeries
Assistance à la programmation : Marc-Olivier Méhu
Soutien technique & logistique : Manuel Goepfert

Contact : metmap@orbifly.com




SOURCES & CREDITS :

   NOAA       Earth
Advisory